Time;durP1;ratioP1;P1;durP2;ratioP2;P2;SDS_P1;SDS_P2;PMS_P1;PMS_P2;Temp;Humidity;BMP_temperature;BMP_pressure;BME280_temperature;BME280_humidity;BME280_pressure;Samples;Min_cycle;Max_cycle;Signal;HPM_P1;HPM_P2
2023/07/19 00:00:17;;;;;;;11.55;4.32;;;21.00;99.90;;;;;;5048005;28;20043;-75
2023/07/19 00:02:43;;;;;;;7.20;3.72;;;21.00;99.90;;;;;;5045491;28;20452;-76
2023/07/19 00:05:10;;;;;;;7.57;4.00;;;21.00;99.90;;;;;;5048898;28;20029;-75
2023/07/19 00:07:36;;;;;;;8.63;3.78;;;21.10;99.90;;;;;;5047528;28;20048;-75
2023/07/19 00:10:03;;;;;;;9.02;4.00;;;21.20;99.90;;;;;;5048200;28;20029;-76
2023/07/19 00:12:28;;;;;;;8.40;4.22;;;21.20;99.90;;;;;;5049680;28;20465;-76
2023/07/19 00:14:54;;;;;;;7.32;4.30;;;21.40;99.90;;;;;;5048101;28;20052;-75
2023/07/19 00:17:20;;;;;;;12.82;3.95;;;21.50;99.90;;;;;;5047434;28;20040;-76
2023/07/19 00:19:45;;;;;;;10.23;4.20;;;21.60;99.90;;;;;;5048790;28;20037;-75
2023/07/19 00:22:11;;;;;;;5.18;2.58;;;21.50;99.90;;;;;;5048549;28;20032;-75
2023/07/19 00:24:37;;;;;;;10.10;4.00;;;21.60;99.90;;;;;;5051866;28;20139;-76
2023/07/19 00:27:02;;;;;;;9.82;3.75;;;21.60;99.90;;;;;;5046148;28;20025;-76
2023/07/19 00:29:28;;;;;;;8.63;4.07;;;21.30;99.90;;;;;;5047462;28;20063;-75
2023/07/19 00:31:54;;;;;;;12.68;4.60;;;21.20;99.90;;;;;;5048292;28;20098;-76
2023/07/19 00:34:20;;;;;;;8.48;3.55;;;21.20;99.90;;;;;;5048169;28;20031;-76
2023/07/19 00:36:45;;;;;;;10.30;3.80;;;21.10;99.90;;;;;;5045805;28;20029;-76
2023/07/19 00:39:12;;;;;;;9.15;3.28;;;21.20;99.90;;;;;;5048475;28;20424;-75
2023/07/19 00:41:37;;;;;;;10.45;3.88;;;21.40;99.90;;;;;;5047138;28;20435;-75
2023/07/19 00:44:03;;;;;;;10.90;3.92;;;21.10;99.90;;;;;;5043187;28;20068;-75
2023/07/19 00:46:29;;;;;;;6.70;4.03;;;20.80;99.90;;;;;;5049089;28;20029;-76
2023/07/19 00:48:56;;;;;;;11.73;3.20;;;21.00;99.90;;;;;;5047330;28;20038;-75
2023/07/19 00:51:22;;;;;;;6.80;3.70;;;20.90;99.90;;;;;;5047626;28;20049;-76
2023/07/19 00:53:49;;;;;;;8.93;4.10;;;20.90;99.90;;;;;;5046944;28;20063;-75
2023/07/19 00:56:15;;;;;;;8.88;4.10;;;20.90;99.90;;;;;;5048171;28;20032;-76
2023/07/19 00:58:42;;;;;;;7.47;3.13;;;20.80;99.90;;;;;;5047423;28;20033;-76
2023/07/19 01:01:09;;;;;;;7.07;3.22;;;20.90;99.90;;;;;;5048006;28;20036;-75
2023/07/19 01:03:35;;;;;;;8.55;3.15;;;20.80;99.90;;;;;;5047006;28;20032;-75
2023/07/19 01:06:03;;;;;;;6.03;3.08;;;20.80;99.90;;;;;;5045359;28;20104;-76
2023/07/19 01:08:30;;;;;;;7.63;3.15;;;20.70;99.90;;;;;;5047418;28;20025;-77
2023/07/19 01:10:56;;;;;;;11.55;3.38;;;20.90;99.90;;;;;;5047914;28;20107;-76
2023/07/19 01:13:22;;;;;;;9.45;3.28;;;21.00;99.90;;;;;;5046241;28;20105;-76
2023/07/19 01:15:47;;;;;;;8.50;3.35;;;20.90;99.90;;;;;;5047216;28;20044;-76
2023/07/19 01:18:13;;;;;;;9.95;3.53;;;20.90;99.90;;;;;;5048531;28;20060;-76
2023/07/19 01:20:39;;;;;;;13.63;4.35;;;21.00;99.90;;;;;;5047269;28;20036;-75
2023/07/19 01:23:05;;;;;;;12.38;4.57;;;21.00;99.90;;;;;;5046007;28;20037;-76
2023/07/19 01:25:31;;;;;;;9.65;4.53;;;20.90;99.90;;;;;;5048279;28;20017;-76
2023/07/19 01:27:57;;;;;;;7.03;3.70;;;20.80;99.90;;;;;;5047039;28;20040;-75
2023/07/19 01:30:22;;;;;;;10.45;3.88;;;20.70;99.90;;;;;;5046569;28;20481;-76
2023/07/19 01:32:48;;;;;;;8.98;3.47;;;20.90;99.90;;;;;;5046505;28;20035;-76
2023/07/19 01:35:14;;;;;;;7.18;2.95;;;20.90;99.90;;;;;;5046966;28;20029;-76
2023/07/19 01:37:40;;;;;;;9.55;4.13;;;20.70;99.90;;;;;;5049057;28;20438;-76
2023/07/19 01:40:06;;;;;;;8.93;3.80;;;20.70;99.90;;;;;;5047128;28;20035;-75
2023/07/19 01:42:32;;;;;;;7.85;3.60;;;20.80;99.90;;;;;;5046359;28;20393;-76
2023/07/19 01:44:59;;;;;;;9.52;3.60;;;20.70;99.90;;;;;;5044788;28;20021;-75
2023/07/19 01:47:25;;;;;;;6.80;3.53;;;20.90;99.90;;;;;;5047234;28;20033;-76
2023/07/19 01:49:51;;;;;;;10.73;3.45;;;20.70;99.90;;;;;;5047359;28;20025;-75
2023/07/19 01:52:16;;;;;;;9.70;4.00;;;20.90;99.90;;;;;;5048437;28;20566;-75
2023/07/19 01:54:42;;;;;;;7.03;3.90;;;21.10;99.90;;;;;;5045368;28;20025;-76
2023/07/19 01:57:08;;;;;;;10.25;3.78;;;21.10;99.90;;;;;;5052327;28;20112;-76
2023/07/19 01:59:33;;;;;;;8.02;3.58;;;21.10;99.90;;;;;;5045364;28;20029;-76
2023/07/19 02:01:59;;;;;;;8.23;3.75;;;21.00;99.90;;;;;;5044897;28;20470;-76
2023/07/19 02:04:26;;;;;;;8.52;3.28;;;20.70;99.90;;;;;;5046996;28;20025;-76
2023/07/19 02:06:52;;;;;;;6.53;3.72;;;20.70;99.90;;;;;;5047221;28;20021;-75
2023/07/19 02:09:18;;;;;;;8.80;4.00;;;20.50;99.90;;;;;;5046300;28;20025;-76
2023/07/19 02:11:44;;;;;;;8.45;4.22;;;20.40;99.90;;;;;;5046980;28;20032;-76
2023/07/19 02:14:09;;;;;;;10.23;3.40;;;20.50;99.90;;;;;;5046959;28;20033;-75
2023/07/19 02:16:35;;;;;;;10.77;3.65;;;20.60;99.90;;;;;;5045805;28;20116;-76
2023/07/19 02:19:05;;;;;;;8.43;3.28;;;20.70;99.90;;;;;;5049422;28;20029;-76
2023/07/19 02:21:31;;;;;;;9.25;2.45;;;20.70;99.90;;;;;;5049297;28;20108;-76
2023/07/19 02:23:57;;;;;;;7.38;3.38;;;20.70;99.90;;;;;;5050070;28;20108;-75
2023/07/19 02:26:24;;;;;;;8.88;3.50;;;20.70;99.90;;;;;;5050603;28;20032;-75
2023/07/19 02:28:49;;;;;;;11.90;3.75;;;20.50;99.90;;;;;;5051539;28;20478;-75
2023/07/19 02:31:15;;;;;;;10.73;3.65;;;20.40;99.90;;;;;;5050485;28;20112;-76
2023/07/19 02:33:41;;;;;;;9.70;3.88;;;20.30;99.90;;;;;;5047813;28;20428;-76
2023/07/19 02:36:08;;;;;;;11.75;4.45;;;20.10;99.90;;;;;;5048520;28;20413;-75
2023/07/19 02:38:34;;;;;;;9.55;3.72;;;19.80;99.90;;;;;;5049522;28;20043;-75
2023/07/19 02:41:01;;;;;;;10.00;3.75;;;19.90;99.90;;;;;;5051446;28;20064;-75
2023/07/19 02:43:27;;;;;;;11.18;3.20;;;20.10;99.90;;;;;;5049167;28;20539;-75
2023/07/19 02:45:53;;;;;;;9.35;2.58;;;20.40;99.90;;;;;;5050284;28;20029;-75
2023/07/19 02:48:23;;;;;;;6.65;3.63;;;20.50;99.90;;;;;;5051067;28;20479;-75
2023/07/19 02:50:49;;;;;;;8.82;3.58;;;20.50;99.90;;;;;;5049892;28;20053;-75
2023/07/19 02:53:16;;;;;;;5.95;3.25;;;20.10;99.90;;;;;;5047683;28;20079;-75
2023/07/19 02:55:46;;;;;;;10.20;3.72;;;20.10;99.90;;;;;;5050428;28;20021;-76
2023/07/19 02:58:13;;;;;;;9.27;3.50;;;20.00;99.90;;;;;;5049933;28;20029;-75
2023/07/19 03:00:43;;;;;;;8.40;4.05;;;20.00;99.90;;;;;;5048976;28;20037;-75
2023/07/19 03:03:12;;;;;;;7.95;3.95;;;19.80;99.90;;;;;;5046148;28;20490;-77
2023/07/19 03:05:39;;;;;;;5.82;3.75;;;19.60;99.90;;;;;;5042484;28;20025;-75
2023/07/19 03:08:06;;;;;;;9.25;3.95;;;19.70;99.90;;;;;;5044392;28;20684;-75
2023/07/19 03:10:32;;;;;;;10.95;3.95;;;19.70;99.90;;;;;;5043621;28;20029;-76
2023/07/19 03:12:57;;;;;;;6.18;3.22;;;19.80;99.90;;;;;;5044918;28;20676;-76
2023/07/19 03:15:23;;;;;;;10.15;3.13;;;19.70;99.90;;;;;;5042018;28;20071;-76
2023/07/19 03:17:49;;;;;;;6.63;2.80;;;19.80;99.90;;;;;;5042011;28;20057;-76
2023/07/19 03:20:14;;;;;;;9.75;3.72;;;20.10;99.90;;;;;;5043784;28;20450;-76
2023/07/19 03:22:40;;;;;;;9.02;3.67;;;20.00;99.90;;;;;;5042502;28;20037;-76
2023/07/19 03:25:06;;;;;;;10.52;3.70;;;20.00;99.90;;;;;;5043183;28;20425;-76
2023/07/19 03:27:32;;;;;;;6.07;2.85;;;19.90;99.90;;;;;;5045643;28;20056;-76
2023/07/19 03:29:57;;;;;;;7.00;3.13;;;19.80;99.90;;;;;;5045629;28;20052;-76
2023/07/19 03:32:23;;;;;;;9.27;3.00;;;19.80;99.90;;;;;;5044519;28;20608;-77
2023/07/19 03:34:49;;;;;;;7.50;3.00;;;19.90;99.90;;;;;;5044971;28;20079;-76
2023/07/19 03:37:15;;;;;;;9.60;3.50;;;19.70;99.90;;;;;;5044581;28;20431;-76
2023/07/19 03:39:40;;;;;;;5.38;2.85;;;19.70;99.90;;;;;;5044922;28;20425;-75
2023/07/19 03:42:08;;;;;;;11.88;3.20;;;19.80;99.90;;;;;;5046164;28;20044;-76
2023/07/19 03:44:34;;;;;;;8.18;3.33;;;19.80;99.90;;;;;;5044807;28;20048;-76
2023/07/19 03:46:59;;;;;;;6.03;3.38;;;19.60;99.90;;;;;;5045309;28;20086;-76
2023/07/19 03:49:25;;;;;;;9.77;3.75;;;19.60;99.90;;;;;;5045382;28;20025;-76
2023/07/19 03:51:50;;;;;;;11.02;3.45;;;19.50;99.90;;;;;;5044747;28;20661;-76
2023/07/19 03:54:17;;;;;;;8.30;3.45;;;19.40;99.90;;;;;;5044933;28;20465;-76
2023/07/19 03:56:43;;;;;;;5.65;2.83;;;19.40;99.90;;;;;;5044703;28;20124;-76
2023/07/19 03:59:09;;;;;;;7.68;3.40;;;19.50;99.90;;;;;;5040948;28;20123;-77
2023/07/19 04:01:36;;;;;;;5.53;3.05;;;19.50;99.90;;;;;;5042707;28;20056;-75
2023/07/19 04:04:03;;;;;;;6.32;3.30;;;19.50;99.90;;;;;;5041451;28;20082;-76
2023/07/19 04:06:29;;;;;;;9.45;3.40;;;19.80;99.90;;;;;;5040983;28;20035;-76
2023/07/19 04:08:55;;;;;;;5.85;3.00;;;19.60;99.90;;;;;;5042622;28;20032;-75
2023/07/19 04:11:21;;;;;;;8.43;3.70;;;19.50;99.90;;;;;;5041328;28;20036;-75
2023/07/19 04:13:46;;;;;;;10.18;3.70;;;19.50;99.90;;;;;;5039899;28;20036;-76
2023/07/19 04:16:12;;;;;;;5.93;2.95;;;19.40;99.90;;;;;;5041789;28;20035;-76
2023/07/19 04:18:38;;;;;;;6.53;3.33;;;19.40;99.90;;;;;;5040531;28;20394;-76
2023/07/19 04:21:03;;;;;;;7.60;3.53;;;19.50;99.90;;;;;;5041578;28;20040;-76
2023/07/19 04:23:29;;;;;;;11.55;4.05;;;19.50;99.90;;;;;;5042137;28;20029;-75
2023/07/19 04:25:55;;;;;;;12.18;3.70;;;19.50;99.90;;;;;;5040329;28;20043;-76
2023/07/19 04:28:20;;;;;;;9.13;4.03;;;19.60;99.90;;;;;;5040235;28;20021;-76
2023/07/19 04:30:46;;;;;;;7.70;3.67;;;19.60;99.90;;;;;;5042497;28;20423;-77
2023/07/19 04:33:13;;;;;;;6.57;3.42;;;19.70;99.90;;;;;;5040813;28;20040;-77
2023/07/19 04:35:39;;;;;;;8.10;3.42;;;19.70;99.90;;;;;;5038283;28;20118;-76
2023/07/19 04:38:04;;;;;;;13.32;3.72;;;19.80;99.90;;;;;;5041731;28;20393;-76
2023/07/19 04:40:31;;;;;;;9.70;3.88;;;19.70;99.90;;;;;;5040539;28;20061;-76
2023/07/19 04:42:58;;;;;;;9.43;3.72;;;19.70;99.90;;;;;;5039397;28;20044;-76
2023/07/19 04:45:24;;;;;;;9.18;3.80;;;19.80;99.90;;;;;;5040854;28;20530;-76
2023/07/19 04:47:50;;;;;;;9.23;4.72;;;19.80;99.90;;;;;;5041256;28;20070;-78
2023/07/19 04:50:16;;;;;;;11.50;4.57;;;20.00;99.90;;;;;;5039979;28;20044;-76
2023/07/19 04:52:45;;;;;;;9.68;3.90;;;20.00;99.90;;;;;;5042629;28;20558;-76
2023/07/19 04:55:11;;;;;;;9.32;3.67;;;20.00;99.90;;;;;;5036883;28;20029;-77
2023/07/19 04:57:37;;;;;;;12.32;4.25;;;20.10;99.90;;;;;;5037919;28;20029;-76
2023/07/19 05:00:05;;;;;;;10.60;4.55;;;20.10;99.90;;;;;;5038160;28;20075;-76
2023/07/19 05:02:31;;;;;;;6.70;3.70;;;20.10;99.90;;;;;;5040556;28;20076;-76
2023/07/19 05:04:56;;;;;;;10.50;4.07;;;20.10;99.90;;;;;;5037690;28;20063;-76
2023/07/19 05:07:22;;;;;;;7.68;3.72;;;20.10;99.90;;;;;;5042730;28;20032;-75
2023/07/19 05:09:48;;;;;;;10.13;4.15;;;20.00;99.90;;;;;;5040092;28;20504;-76
2023/07/19 05:12:14;;;;;;;11.18;4.28;;;20.20;99.90;;;;;;5040360;28;20072;-75
2023/07/19 05:14:39;;;;;;;11.70;4.10;;;20.20;99.90;;;;;;5037701;28;20527;-75
2023/07/19 05:17:05;;;;;;;11.43;3.67;;;20.20;99.90;;;;;;5039374;28;20047;-75
2023/07/19 05:19:31;;;;;;;11.05;4.63;;;20.30;99.90;;;;;;5041230;28;20079;-75
2023/07/19 05:21:56;;;;;;;9.20;3.88;;;20.30;99.90;;;;;;5040429;28;20033;-77
2023/07/19 05:24:22;;;;;;;6.82;3.65;;;20.20;99.90;;;;;;5040147;28;20562;-76
2023/07/19 05:26:48;;;;;;;18.55;4.63;;;20.30;99.90;;;;;;5040064;28;20029;-77
2023/07/19 05:29:14;;;;;;;11.88;3.65;;;20.50;99.90;;;;;;5039998;28;20056;-76
2023/07/19 05:31:40;;;;;;;10.02;4.00;;;20.60;99.90;;;;;;5039377;28;20033;-76
2023/07/19 05:34:07;;;;;;;11.30;4.03;;;20.60;99.90;;;;;;5041532;28;20025;-76
2023/07/19 05:36:33;;;;;;;12.65;3.80;;;20.60;99.90;;;;;;5038817;28;20138;-76
2023/07/19 05:39:01;;;;;;;13.35;4.75;;;20.70;99.90;;;;;;5035978;28;20046;-76
2023/07/19 05:41:27;;;;;;;10.90;3.88;;;20.70;99.90;;;;;;5038214;28;20060;-76
2023/07/19 05:43:53;;;;;;;7.63;3.38;;;20.80;99.90;;;;;;5040420;28;20076;-77
2023/07/19 05:46:19;;;;;;;6.57;3.22;;;20.90;99.90;;;;;;5039418;28;20053;-76
2023/07/19 05:48:45;;;;;;;10.63;4.28;;;21.00;99.90;;;;;;5039519;28;20031;-77
2023/07/19 05:51:10;;;;;;;8.60;3.63;;;21.10;99.90;;;;;;5040314;28;20071;-76
2023/07/19 05:53:37;;;;;;;10.13;3.22;;;21.20;99.90;;;;;;5042011;28;20120;-76
2023/07/19 05:56:02;;;;;;;9.52;3.22;;;21.20;99.90;;;;;;5041169;28;20033;-77
2023/07/19 05:58:30;;;;;;;8.98;3.65;;;21.30;99.90;;;;;;5041816;28;20033;-76
2023/07/19 06:00:55;;;;;;;8.10;3.45;;;21.30;99.90;;;;;;5041291;28;20029;-78
2023/07/19 06:03:21;;;;;;;8.30;3.50;;;21.40;99.90;;;;;;5053549;28;20051;-76
2023/07/19 06:05:47;;;;;;;6.35;3.40;;;21.50;99.90;;;;;;5048393;28;20056;-76
2023/07/19 06:08:13;;;;;;;9.80;3.83;;;21.60;99.90;;;;;;5047338;28;20098;-77
2023/07/19 06:10:39;;;;;;;8.13;3.78;;;21.50;99.90;;;;;;5040378;28;20025;-77
2023/07/19 06:13:05;;;;;;;7.93;3.60;;;21.50;99.90;;;;;;5041477;28;20102;-76
2023/07/19 06:15:32;;;;;;;7.78;2.72;;;21.40;99.90;;;;;;5042698;28;20043;-77
2023/07/19 06:17:59;;;;;;;9.68;3.67;;;21.70;99.90;;;;;;5043284;28;20083;-77
2023/07/19 06:20:25;;;;;;;10.35;3.80;;;21.70;99.90;;;;;;5041141;28;20037;-76
2023/07/19 06:22:50;;;;;;;8.05;3.95;;;21.80;99.90;;;;;;5043505;28;20033;-77
2023/07/19 06:25:16;;;;;;;7.05;3.75;;;21.70;99.90;;;;;;5044644;28;20119;-76
2023/07/19 06:27:42;;;;;;;9.70;3.72;;;21.50;99.90;;;;;;5042537;28;20036;-77
2023/07/19 06:30:09;;;;;;;6.85;3.65;;;21.40;99.90;;;;;;5042758;28;20067;-76
2023/07/19 06:32:36;;;;;;;6.03;3.38;;;21.50;99.90;;;;;;5043656;28;20413;-76
2023/07/19 06:35:02;;;;;;;14.23;3.60;;;21.70;99.90;;;;;;5041598;28;20394;-76
2023/07/19 06:37:28;;;;;;;7.15;3.65;;;21.70;99.90;;;;;;5042717;28;20082;-76
2023/07/19 06:39:54;;;;;;;8.68;3.60;;;21.90;99.90;;;;;;5047314;28;20040;-76
2023/07/19 06:42:19;;;;;;;9.82;4.38;;;21.90;99.90;;;;;;5040417;28;20146;-76
2023/07/19 06:44:45;;;;;;;10.18;3.95;;;21.80;99.90;;;;;;5042395;28;20037;-77
2023/07/19 06:47:11;;;;;;;11.60;3.88;;;22.00;99.90;;;;;;5043173;28;20033;-76
2023/07/19 06:49:37;;;;;;;12.05;3.30;;;22.00;99.90;;;;;;5042582;28;20029;-77
2023/07/19 06:52:04;;;;;;;7.07;3.67;;;22.10;99.90;;;;;;5040984;28;20042;-76
2023/07/19 06:54:29;;;;;;;9.45;4.07;;;22.40;99.90;;;;;;5043639;28;20024;-78
2023/07/19 06:56:55;;;;;;;18.40;4.85;;;22.50;99.90;;;;;;5041981;28;20033;-77
2023/07/19 06:59:21;;;;;;;11.27;3.92;;;22.60;99.90;;;;;;5042225;28;20029;-76
2023/07/19 07:01:46;;;;;;;7.68;3.92;;;22.70;99.90;;;;;;5039818;28;20040;-77
2023/07/19 07:04:12;;;;;;;7.22;3.70;;;22.90;99.90;;;;;;5040525;28;20262;-76
2023/07/19 07:06:38;;;;;;;9.30;4.32;;;23.20;99.90;;;;;;5036510;28;20170;-76
2023/07/19 07:09:04;;;;;;;10.30;4.43;;;23.50;99.90;;;;;;5034463;28;20568;-77
2023/07/19 07:11:29;;;;;;;9.40;4.32;;;23.80;99.90;;;;;;5041398;28;20025;-76
2023/07/19 07:13:55;;;;;;;9.35;4.78;;;24.00;99.90;;;;;;5041557;28;20480;-76
2023/07/19 07:16:21;;;;;;;7.18;3.55;;;24.30;99.90;;;;;;5041908;28;20086;-76
2023/07/19 07:18:46;;;;;;;12.43;3.90;;;24.50;99.90;;;;;;5043478;28;20158;-76
2023/07/19 07:21:12;;;;;;;10.15;3.75;;;24.80;99.90;;;;;;5041882;28;20024;-76
2023/07/19 07:23:38;;;;;;;8.02;4.30;;;24.70;99.90;;;;;;5041143;28;20032;-78
2023/07/19 07:26:03;;;;;;;11.38;3.72;;;24.70;99.90;;;;;;5042442;28;20048;-76
2023/07/19 07:28:29;;;;;;;8.48;3.17;;;24.50;99.90;;;;;;5040949;28;20044;-77
2023/07/19 07:30:54;;;;;;;9.35;3.60;;;24.50;99.90;;;;;;5041041;28;20348;-75
2023/07/19 07:33:20;;;;;;;10.55;3.53;;;25.30;99.90;;;;;;5042888;28;20624;-76
2023/07/19 07:35:46;;;;;;;10.80;4.53;;;25.70;99.90;;;;;;5041168;28;20486;-76
2023/07/19 07:38:12;;;;;;;8.82;4.25;;;25.90;99.90;;;;;;5041177;28;20060;-76
2023/07/19 07:40:37;;;;;;;9.60;4.45;;;25.90;99.90;;;;;;5043239;28;20137;-76
2023/07/19 07:43:03;;;;;;;6.38;3.92;;;26.10;99.90;;;;;;5041065;28;20722;-75
2023/07/19 07:45:29;;;;;;;10.63;4.28;;;26.40;99.90;;;;;;5041419;28;20036;-76
2023/07/19 07:47:54;;;;;;;11.30;4.10;;;26.30;99.90;;;;;;5042768;28;20481;-77
2023/07/19 07:50:22;;;;;;;8.57;4.22;;;26.00;99.90;;;;;;5040768;28;20048;-77
2023/07/19 07:52:48;;;;;;;6.70;3.30;;;26.00;99.90;;;;;;5040124;28;20044;-78
2023/07/19 07:55:14;;;;;;;13.27;4.03;;;26.50;99.90;;;;;;5039867;28;20454;-78
2023/07/19 07:57:40;;;;;;;13.32;4.22;;;27.00;99.90;;;;;;5040690;28;20024;-78
2023/07/19 08:00:06;;;;;;;7.38;3.67;;;27.30;99.90;;;;;;5039669;28;20075;-78
2023/07/19 08:02:32;;;;;;;9.00;4.05;;;27.80;99.90;;;;;;5041782;28;20045;-77
2023/07/19 08:04:58;;;;;;;9.73;4.32;;;28.00;99.90;;;;;;5041567;28;20029;-78
2023/07/19 08:07:25;;;;;;;12.07;4.43;;;28.20;99.80;;;;;;5040308;28;20756;-77
2023/07/19 08:09:52;;;;;;;8.07;4.32;;;28.30;99.90;;;;;;5042095;28;20029;-77
2023/07/19 08:12:20;;;;;;;13.02;4.95;;;27.50;99.90;;;;;;5041482;28;20677;-77
2023/07/19 08:14:46;;;;;;;9.63;5.00;;;26.80;99.90;;;;;;5040448;28;20032;-77
2023/07/19 08:17:12;;;;;;;9.68;4.38;;;26.10;99.90;;;;;;5041214;28;20104;-77
2023/07/19 08:19:38;;;;;;;12.00;5.13;;;25.70;99.90;;;;;;5040514;28;20055;-77
2023/07/19 08:22:05;;;;;;;12.43;5.05;;;25.30;99.90;;;;;;5039531;28;20072;-77
2023/07/19 08:24:31;;;;;;;9.90;4.45;;;25.00;99.90;;;;;;5041073;28;20033;-77
2023/07/19 08:26:57;;;;;;;8.32;4.22;;;24.60;99.90;;;;;;5040580;28;20496;-76
2023/07/19 08:29:23;;;;;;;11.93;4.38;;;24.40;99.90;;;;;;5041835;28;20066;-77
2023/07/19 08:31:49;;;;;;;10.90;3.90;;;24.20;99.90;;;;;;5041477;28;20017;-77
2023/07/19 08:34:14;;;;;;;8.60;4.43;;;24.00;99.90;;;;;;5039888;28;20410;-77
2023/07/19 08:36:40;;;;;;;7.00;4.28;;;23.80;99.90;;;;;;5040683;28;20037;-78
2023/07/19 08:39:06;;;;;;;10.23;4.55;;;23.70;99.90;;;;;;5040644;28;20033;-77
2023/07/19 08:41:34;;;;;;;12.55;4.22;;;23.50;99.90;;;;;;5039704;28;20401;-79
2023/07/19 08:44:00;;;;;;;8.93;4.20;;;23.40;99.90;;;;;;5040792;28;20070;-76
2023/07/19 08:46:26;;;;;;;9.82;5.03;;;23.30;99.90;;;;;;5044447;28;20056;-76
2023/07/19 08:48:51;;;;;;;11.02;4.65;;;23.20;99.90;;;;;;5042694;28;20091;-78
2023/07/19 08:51:18;;;;;;;12.15;4.78;;;23.10;99.90;;;;;;5043031;28;20056;-78
2023/07/19 08:53:44;;;;;;;8.73;4.35;;;23.10;99.90;;;;;;5044548;28;20032;-77
2023/07/19 08:56:11;;;;;;;9.75;4.30;;;23.10;99.90;;;;;;5041272;28;20764;-78
2023/07/19 08:58:39;;;;;;;10.18;4.88;;;23.00;99.90;;;;;;5041406;28;20032;-76
2023/07/19 09:01:06;;;;;;;8.30;4.05;;;23.00;99.90;;;;;;5043881;28;20186;-77
2023/07/19 09:03:32;;;;;;;11.98;4.88;;;23.00;99.90;;;;;;5043038;28;20529;-78
2023/07/19 09:05:59;;;;;;;10.27;4.40;;;22.90;99.90;;;;;;5042583;28;20045;-77
2023/07/19 09:08:38;;;;;;;7.95;4.22;;;23.00;99.90;;;;;;5043412;28;20614;-77
2023/07/19 09:11:04;;;;;;;8.98;3.78;;;23.00;99.90;;;;;;5042897;28;20029;-77
2023/07/19 09:13:32;;;;;;;9.02;3.95;;;23.00;99.90;;;;;;5042083;28;20028;-76
2023/07/19 09:15:58;;;;;;;8.90;3.53;;;22.80;99.90;;;;;;5044083;28;20021;-77
2023/07/19 09:18:30;;;;;;;12.75;4.05;;;22.80;99.90;;;;;;5042867;28;20606;-77
2023/07/19 09:20:58;;;;;;;9.85;4.15;;;22.80;99.90;;;;;;5041202;28;20029;-76
2023/07/19 09:23:25;;;;;;;9.23;4.57;;;22.60;99.90;;;;;;5042312;28;20509;-73
2023/07/19 09:25:55;;;;;;;10.48;4.75;;;22.30;99.90;;;;;;5043532;28;20089;-76
2023/07/19 09:28:24;;;;;;;12.18;4.60;;;22.30;99.90;;;;;;5041620;28;20190;-76
2023/07/19 09:31:16;;;;;;;9.10;4.47;;;22.30;99.90;;;;;;5041272;28;20382;-76
2023/07/19 09:33:42;;;;;;;9.52;4.85;;;22.10;99.90;;;;;;5040158;28;20049;-77
2023/07/19 09:36:07;;;;;;;11.00;5.32;;;22.30;99.90;;;;;;5041542;28;20040;-76
2023/07/19 09:38:33;;;;;;;8.48;5.47;;;22.50;99.90;;;;;;5043198;28;20356;-76
2023/07/19 09:40:59;;;;;;;9.82;5.00;;;22.70;99.90;;;;;;5036866;28;20081;-77
2023/07/19 09:43:24;;;;;;;7.97;5.07;;;22.90;99.90;;;;;;5041154;28;20045;-76
2023/07/19 09:45:51;;;;;;;7.78;4.95;;;23.10;99.90;;;;;;5042617;28;20059;-77
2023/07/19 09:48:19;;;;;;;8.25;3.75;;;23.90;99.90;;;;;;5041931;28;20085;-77
2023/07/19 09:50:49;;;;;;;7.95;4.20;;;24.10;99.90;;;;;;5034136;28;20264;-76
2023/07/19 09:53:15;;;;;;;11.30;3.90;;;24.30;99.90;;;;;;5022912;28;20037;-78
2023/07/19 09:55:45;;;;;;;8.02;3.38;;;24.50;99.90;;;;;;5022748;28;20067;-76
2023/07/19 09:58:13;;;;;;;8.77;3.72;;;24.60;99.90;;;;;;5020075;28;20041;-77
2023/07/19 10:00:39;;;;;;;10.52;4.53;;;24.70;99.90;;;;;;5023048;28;20045;-76
2023/07/19 10:03:08;;;;;;;8.02;3.83;;;25.00;99.90;;;;;;5016443;28;20041;-77
2023/07/19 10:05:36;;;;;;;10.88;4.53;;;24.90;99.90;;;;;;5021581;28;20057;-76
2023/07/19 10:08:10;;;;;;;7.07;3.72;;;25.10;99.90;;;;;;5023639;28;20483;-76
2023/07/19 10:10:40;;;;;;;13.38;4.25;;;25.20;99.90;;;;;;5022769;28;20029;-77
2023/07/19 10:13:06;;;;;;;10.20;5.03;;;25.20;99.90;;;;;;5019707;28;20608;-76
2023/07/19 10:15:34;;;;;;;7.55;4.15;;;25.00;99.90;;;;;;5019313;28;20041;-75
2023/07/19 10:18:00;;;;;;;12.52;4.10;;;25.60;99.90;;;;;;5020144;28;20028;-75
2023/07/19 10:20:35;;;;;;;9.85;4.00;;;25.80;99.90;;;;;;5021966;28;20032;-75
2023/07/19 10:23:06;;;;;;;8.60;3.97;;;25.90;99.90;;;;;;5021995;28;20395;-75
2023/07/19 10:25:45;;;;;;;9.57;4.65;;;25.90;99.90;;;;;;5016288;28;20025;-75
2023/07/19 10:28:13;;;;;;;7.60;4.22;;;25.70;99.90;;;;;;5022316;28;20021;-75
2023/07/19 10:30:54;;;;;;;11.00;4.20;;;25.50;99.90;;;;;;5021104;28;20027;-75
2023/07/19 10:33:21;;;;;;;9.10;4.82;;;26.10;99.90;;;;;;5020240;28;20112;-75
2023/07/19 10:36:07;;;;;;;11.23;5.07;;;26.50;99.90;;;;;;5020944;28;20505;-76
2023/07/19 10:38:33;;;;;;;10.23;3.65;;;26.30;99.90;;;;;;5020999;28;20298;-75
2023/07/19 10:41:05;;;;;;;8.25;3.70;;;26.20;99.90;;;;;;5026135;28;20030;-75
2023/07/19 10:43:32;;;;;;;7.75;4.00;;;26.00;99.90;;;;;;5025516;28;20033;-77
2023/07/19 10:46:04;;;;;;;9.60;3.75;;;26.00;99.90;;;;;;5025116;28;20029;-75
2023/07/19 10:48:34;;;;;;;10.02;4.45;;;26.00;99.90;;;;;;5020720;28;20082;-77
2023/07/19 10:51:01;;;;;;;11.40;4.85;;;26.30;99.90;;;;;;5034366;28;20044;-78
2023/07/19 10:53:27;;;;;;;9.85;4.50;;;26.60;99.90;;;;;;5045723;28;21306;-77
2023/07/19 10:55:58;;;;;;;6.78;3.60;;;26.60;99.90;;;;;;5045563;28;20116;-76
2023/07/19 10:58:25;;;;;;;7.32;3.85;;;26.70;99.90;;;;;;5045648;28;20037;-76
2023/07/19 11:00:54;;;;;;;7.25;3.90;;;26.60;99.90;;;;;;5046175;28;20025;-77
2023/07/19 11:03:23;;;;;;;9.43;3.50;;;27.00;99.90;;;;;;5040806;28;20037;-77
2023/07/19 11:05:50;;;;;;;8.65;4.00;;;26.90;99.90;;;;;;5044435;28;20119;-75
2023/07/19 11:08:22;;;;;;;7.10;3.28;;;26.80;99.90;;;;;;5045856;28;20029;-76
2023/07/19 11:10:49;;;;;;;8.20;3.67;;;27.00;99.90;;;;;;5045406;28;20098;-77
2023/07/19 11:13:17;;;;;;;7.75;4.05;;;27.00;99.90;;;;;;5045095;28;20057;-77
2023/07/19 11:15:57;;;;;;;7.75;3.42;;;27.30;99.90;;;;;;5046914;28;20025;-76
2023/07/19 11:18:36;;;;;;;8.63;3.78;;;27.40;99.90;;;;;;5052556;28;20394;-78
2023/07/19 11:21:03;;;;;;;9.95;3.10;;;27.80;99.90;;;;;;5045350;28;20083;-78
2023/07/19 11:23:30;;;;;;;5.68;2.90;;;27.80;99.90;;;;;;5044848;28;20394;-78
2023/07/19 11:26:03;;;;;;;6.50;2.65;;;27.80;99.90;;;;;;5046214;28;20079;-77
2023/07/19 11:28:43;;;;;;;8.57;3.43;;;27.60;99.90;;;;;;5045246;28;20569;-77
2023/07/19 11:31:10;;;;;;;5.05;2.15;;;27.60;99.70;;;;;;5043863;28;20028;-76
2023/07/19 11:33:36;;;;;;;6.05;2.60;;;27.40;99.90;;;;;;5044952;28;20068;-76
2023/07/19 11:36:10;;;;;;;6.18;2.85;;;27.50;99.90;;;;;;5045914;28;20608;-76
2023/07/19 11:38:40;;;;;;;5.20;3.00;;;27.60;99.90;;;;;;5045033;28;20048;-75
2023/07/19 11:41:06;;;;;;;3.95;2.42;;;27.70;99.90;;;;;;5043307;28;20021;-75
2023/07/19 11:43:32;;;;;;;5.90;2.72;;;27.70;99.90;;;;;;5044845;28;20047;-76
2023/07/19 11:45:59;;;;;;;7.28;2.80;;;27.60;99.80;;;;;;5045824;28;20032;-77
2023/07/19 11:48:24;;;;;;;6.43;2.58;;;27.60;99.90;;;;;;5044361;28;20615;-77
2023/07/19 11:50:50;;;;;;;6.35;2.33;;;27.60;99.60;;;;;;5042695;28;20482;-76
2023/07/19 11:53:16;;;;;;;6.82;2.72;;;27.80;99.90;;;;;;5044801;28;20079;-76
2023/07/19 11:55:44;;;;;;;5.35;2.20;;;28.10;99.90;;;;;;5049807;28;20029;-75
2023/07/19 11:58:09;;;;;;;6.43;2.33;;;27.90;99.90;;;;;;5043324;28;20106;-75
2023/07/19 12:00:35;;;;;;;6.15;2.88;;;27.90;99.90;;;;;;5044994;28;20474;-75
2023/07/19 12:03:01;;;;;;;7.47;2.42;;;28.10;99.90;;;;;;5043514;28;20029;-75
2023/07/19 12:05:28;;;;;;;4.13;2.30;;;28.10;99.80;;;;;;5043674;28;20038;-77
2023/07/19 12:07:55;;;;;;;5.18;2.60;;;28.30;99.50;;;;;;5045244;28;20029;-76
2023/07/19 12:10:22;;;;;;;9.98;2.33;;;28.40;99.90;;;;;;5041919;28;20549;-76
2023/07/19 12:12:49;;;;;;;5.68;2.28;;;28.40;99.50;;;;;;5043237;28;20027;-76
2023/07/19 12:15:16;;;;;;;4.03;2.30;;;28.40;99.70;;;;;;5045282;28;20036;-77
2023/07/19 12:17:43;;;;;;;3.78;1.75;;;28.70;99.90;;;;;;5040202;28;20033;-75
2023/07/19 12:20:10;;;;;;;5.93;1.90;;;28.70;99.60;;;;;;5038053;28;20380;-76
2023/07/19 12:22:42;;;;;;;8.60;2.42;;;28.50;98.80;;;;;;5041488;28;20106;-76
2023/07/19 12:25:09;;;;;;;6.70;2.17;;;28.80;99.00;;;;;;5040274;28;20031;-76
2023/07/19 12:27:35;;;;;;;4.70;2.30;;;28.70;98.10;;;;;;5039671;28;20079;-76
2023/07/19 12:30:01;;;;;;;5.55;2.25;;;28.80;99.00;;;;;;5038738;28;20115;-76
2023/07/19 12:32:27;;;;;;;5.28;2.30;;;28.90;99.20;;;;;;5040985;28;20095;-77
2023/07/19 12:34:54;;;;;;;4.72;2.15;;;29.20;99.70;;;;;;5044620;28;20078;-76
2023/07/19 12:37:20;;;;;;;7.45;2.45;;;29.40;98.10;;;;;;5040014;28;20044;-76
2023/07/19 12:39:46;;;;;;;5.50;2.38;;;29.00;98.60;;;;;;5041288;28;20036;-76